Time;durP1;ratioP1;P1;durP2;ratioP2;P2;SDS_P1;SDS_P2;PMS_P1;PMS_P2;Temp;Humidity;BMP_temperature;BMP_pressure;BME280_temperature;BME280_humidity;BME280_pressure;Samples;Min_cycle;Max_cycle;Signal;HPM_P1;HPM_P2
2022/03/14 00:01:58;;;;;;;;;;;21.00;29.40;;;;;;5071304;28;19916;-54
2022/03/14 00:04:23;;;;;;;;;;;21.00;29.40;;;;;;5069526;28;19949;-53
2022/03/14 00:06:49;;;;;;;;;;;20.90;29.40;;;;;;5071331;28;19928;-53
2022/03/14 00:09:16;;;;;;;;;;;20.90;29.30;;;;;;5070658;28;20173;-53
2022/03/14 00:11:41;;;;;;;;;;;21.00;29.40;;;;;;5070176;28;19917;-53
2022/03/14 00:14:08;;;;;;;;;;;21.00;29.20;;;;;;5071445;28;19924;-54
2022/03/14 00:16:45;;;;;;;;;;;21.00;29.20;;;;;;5070381;28;19921;-53
2022/03/14 00:19:11;;;;;;;;;;;21.00;29.00;;;;;;5068089;28;19966;-53
2022/03/14 00:21:38;;;;;;;;;;;21.00;29.00;;;;;;5070271;28;20299;-53
2022/03/14 00:24:04;;;;;;;;;;;21.00;29.00;;;;;;5065263;28;20364;-53
2022/03/14 00:26:30;;;;;;;;;;;21.00;28.90;;;;;;5065794;28;19920;-53
2022/03/14 00:28:55;;;;;;;;;;;21.00;29.00;;;;;;5068903;28;20342;-53
2022/03/14 00:31:21;;;;;;;;;;;21.00;29.00;;;;;;5068610;28;20293;-54
2022/03/14 00:33:47;;;;;;;;;;;21.00;29.00;;;;;;5069454;28;19922;-54
2022/03/14 00:36:13;;;;;;;;;;;20.90;29.00;;;;;;5070586;28;20278;-53
2022/03/14 00:38:38;;;;;;;;;;;20.90;29.00;;;;;;5070182;28;19920;-53
2022/03/14 00:41:04;;;;;;;;;;;20.90;29.00;;;;;;5069530;28;20004;-53
2022/03/14 00:43:30;;;;;;;;;;;20.80;28.90;;;;;;5070453;28;19913;-53
2022/03/14 00:45:56;;;;;;;;;;;20.80;28.90;;;;;;5069844;28;19917;-53
2022/03/14 00:48:22;;;;;;;;;;;20.80;28.90;;;;;;5071028;28;19923;-53
2022/03/14 00:50:47;;;;;;;;;;;20.80;28.90;;;;;;5069444;28;19916;-52
2022/03/14 00:53:13;;;;;;;;;;;20.80;29.00;;;;;;5070711;28;20014;-53
2022/03/14 00:55:38;;;;;;;;;;;20.80;29.10;;;;;;5069504;28;20310;-53
2022/03/14 00:58:03;;;;;;;;;;;20.70;29.10;;;;;;5069219;28;19916;-53
2022/03/14 01:00:29;;;;;;;;;;;20.70;29.70;;;;;;5070639;28;19917;-53
2022/03/14 01:02:55;;;;;;;;;;;20.60;29.10;;;;;;5069983;28;19916;-53
2022/03/14 01:05:20;;;;;;;;;;;20.60;29.20;;;;;;5069477;28;19917;-53
2022/03/14 01:07:46;;;;;;;;;;;20.50;29.30;;;;;;5069710;28;19962;-54
2022/03/14 01:10:12;;;;;;;;;;;20.50;29.30;;;;;;5070025;28;19912;-54
2022/03/14 01:12:38;;;;;;;;;;;20.40;29.30;;;;;;5069624;28;19935;-52
2022/03/14 01:15:04;;;;;;;;;;;20.40;29.30;;;;;;5067788;28;19916;-53
2022/03/14 01:17:29;;;;;;;;;;;20.40;29.40;;;;;;5070032;28;19932;-53
2022/03/14 01:19:54;;;;;;;;;;;20.30;29.40;;;;;;5068589;28;19917;-54
2022/03/14 01:22:20;;;;;;;;;;;20.30;29.30;;;;;;5068513;28;19919;-53
2022/03/14 01:24:45;;;;;;;;;;;20.30;29.40;;;;;;5068849;28;19916;-54
2022/03/14 01:27:11;;;;;;;;;;;20.30;29.40;;;;;;5068763;28;19927;-54
2022/03/14 01:29:38;;;;;;;;;;;20.20;29.40;;;;;;5069509;28;19919;-53
2022/03/14 01:32:04;;;;;;;;;;;20.20;29.30;;;;;;5068988;28;19916;-54
2022/03/14 01:34:29;;;;;;;;;;;20.20;29.40;;;;;;5069908;28;20030;-53
2022/03/14 01:36:55;;;;;;;;;;;20.20;29.40;;;;;;5068908;28;20059;-53
2022/03/14 01:39:20;;;;;;;;;;;20.20;29.40;;;;;;5069938;28;19917;-53
2022/03/14 01:41:46;;;;;;;;;;;20.20;29.40;;;;;;5068532;28;20428;-53
2022/03/14 01:44:11;;;;;;;;;;;20.10;29.30;;;;;;5068570;28;19934;-53
2022/03/14 01:46:37;;;;;;;;;;;20.10;29.30;;;;;;5069887;28;19917;-53
2022/03/14 01:49:02;;;;;;;;;;;20.10;29.30;;;;;;5067677;28;19923;-53
2022/03/14 01:51:29;;;;;;;;;;;20.10;29.30;;;;;;5069307;28;19916;-54
2022/03/14 01:53:54;;;;;;;;;;;20.00;29.20;;;;;;5067786;28;19936;-53
2022/03/14 01:56:20;;;;;;;;;;;20.10;29.30;;;;;;5068040;28;19916;-52
2022/03/14 01:58:46;;;;;;;;;;;20.10;29.30;;;;;;5069917;28;19921;-54
2022/03/14 02:01:11;;;;;;;;;;;20.10;29.20;;;;;;5067925;28;19923;-54
2022/03/14 02:03:37;;;;;;;;;;;20.10;29.20;;;;;;5065678;28;20372;-54
2022/03/14 02:06:02;;;;;;;;;;;20.20;29.10;;;;;;5066211;28;19965;-54
2022/03/14 02:08:28;;;;;;;;;;;20.10;29.10;;;;;;5068593;28;19912;-54
2022/03/14 02:10:53;;;;;;;;;;;20.20;29.10;;;;;;5068103;28;19912;-53
2022/03/14 02:13:19;;;;;;;;;;;20.20;29.10;;;;;;5066601;28;20345;-54
2022/03/14 02:15:45;;;;;;;;;;;20.20;29.10;;;;;;5068977;28;19912;-53
2022/03/14 02:18:10;;;;;;;;;;;20.30;29.10;;;;;;5068018;28;20287;-53
2022/03/14 02:20:36;;;;;;;;;;;20.40;28.90;;;;;;5068854;28;20007;-52
2022/03/14 02:23:01;;;;;;;;;;;20.60;28.90;;;;;;5065846;28;19931;-53
2022/03/14 02:25:27;;;;;;;;;;;20.80;28.90;;;;;;5065281;28;19912;-54
2022/03/14 02:27:52;;;;;;;;;;;20.90;28.80;;;;;;5067065;28;19920;-52
2022/03/14 02:30:18;;;;;;;;;;;21.10;28.50;;;;;;5068011;28;19991;-53
2022/03/14 02:32:45;;;;;;;;;;;21.50;28.30;;;;;;5067222;28;19917;-53
2022/03/14 02:35:10;;;;;;;;;;;21.80;28.00;;;;;;5065388;28;19912;-53
2022/03/14 02:37:36;;;;;;;;;;;22.20;27.70;;;;;;5065892;28;19924;-53
2022/03/14 02:40:02;;;;;;;;;;;22.50;27.30;;;;;;5067865;28;19935;-53
2022/03/14 02:42:27;;;;;;;;;;;22.90;27.00;;;;;;5067371;28;19920;-53
2022/03/14 02:44:53;;;;;;;;;;;23.20;26.80;;;;;;5068403;28;19913;-53
2022/03/14 02:47:19;;;;;;;;;;;23.40;26.60;;;;;;5067052;28;19912;-53
2022/03/14 02:49:44;;;;;;;;;;;23.70;26.50;;;;;;5065129;28;19954;-53
2022/03/14 02:52:10;;;;;;;;;;;23.80;26.40;;;;;;5065992;28;19997;-53
2022/03/14 02:54:35;;;;;;;;;;;23.80;26.40;;;;;;5069372;28;19917;-53
2022/03/14 02:57:01;;;;;;;;;;;23.80;26.40;;;;;;5065744;28;19916;-52
2022/03/14 02:59:27;;;;;;;;;;;23.70;26.30;;;;;;5066414;28;19913;-53
2022/03/14 03:01:52;;;;;;;;;;;23.50;26.30;;;;;;5068306;28;20318;-53
2022/03/14 03:04:17;;;;;;;;;;;23.40;26.60;;;;;;5066993;28;19913;-53
2022/03/14 03:06:44;;;;;;;;;;;23.20;26.70;;;;;;5068320;28;19927;-53
2022/03/14 03:09:10;;;;;;;;;;;23.10;26.90;;;;;;5067748;28;19913;-53
2022/03/14 03:11:36;;;;;;;;;;;22.90;26.90;;;;;;5066652;28;19969;-53
2022/03/14 03:14:01;;;;;;;;;;;22.80;27.10;;;;;;5068457;28;19954;-53
2022/03/14 03:16:27;;;;;;;;;;;22.70;27.20;;;;;;5067490;28;19913;-54
2022/03/14 03:18:52;;;;;;;;;;;22.60;27.30;;;;;;5068546;28;19913;-54
2022/03/14 03:21:17;;;;;;;;;;;22.40;27.40;;;;;;5070325;28;19912;-54
2022/03/14 03:23:43;;;;;;;;;;;22.30;27.50;;;;;;5070848;28;19912;-54
2022/03/14 03:26:09;;;;;;;;;;;22.20;27.60;;;;;;5058432;28;19967;-53
2022/03/14 03:28:37;;;;;;;;;;;22.10;27.70;;;;;;5070203;28;19912;-53
2022/03/14 03:31:06;;;;;;;;;;;22.10;27.80;;;;;;5069915;28;20011;-53
2022/03/14 03:33:32;;;;;;;;;;;22.00;27.90;;;;;;5071415;28;19975;-53
2022/03/14 03:35:58;;;;;;;;;;;21.90;28.00;;;;;;5070318;28;20004;-54
2022/03/14 03:38:24;;;;;;;;;;;21.70;28.10;;;;;;5070265;28;19920;-53
2022/03/14 03:40:49;;;;;;;;;;;21.70;28.20;;;;;;5071111;28;20257;-53
2022/03/14 03:43:15;;;;;;;;;;;21.70;28.20;;;;;;5062222;28;19923;-53
2022/03/14 03:45:40;;;;;;;;;;;21.80;28.20;;;;;;5071026;28;19975;-53
2022/03/14 03:48:06;;;;;;;;;;;21.90;28.00;;;;;;5070725;28;19917;-53
2022/03/14 03:50:31;;;;;;;;;;;22.00;27.90;;;;;;5070500;28;19920;-54
2022/03/14 03:52:57;;;;;;;;;;;22.10;27.80;;;;;;5071111;28;19921;-54
2022/03/14 03:55:22;;;;;;;;;;;22.30;27.70;;;;;;5070667;28;19913;-53
2022/03/14 03:57:48;;;;;;;;;;;22.40;27.60;;;;;;5058543;28;19909;-53
2022/03/14 04:00:14;;;;;;;;;;;22.60;27.50;;;;;;5062304;28;19909;-53
2022/03/14 04:02:39;;;;;;;;;;;22.70;27.30;;;;;;5073444;28;19915;-53
2022/03/14 04:05:05;;;;;;;;;;;22.80;27.30;;;;;;5071717;28;20376;-53
2022/03/14 04:07:34;;;;;;;;;;;22.80;27.10;;;;;;5069317;28;20392;-53
2022/03/14 04:10:00;;;;;;;;;;;22.80;27.10;;;;;;5068532;28;19956;-53
2022/03/14 04:12:28;;;;;;;;;;;22.80;27.00;;;;;;5071508;28;20040;-53
2022/03/14 04:14:56;;;;;;;;;;;22.80;27.10;;;;;;5070118;28;19912;-54
2022/03/14 04:17:24;;;;;;;;;;;22.80;27.10;;;;;;5069432;28;20010;-54
2022/03/14 04:19:50;;;;;;;;;;;22.70;27.10;;;;;;5069874;28;19918;-54
2022/03/14 04:22:15;;;;;;;;;;;22.60;27.10;;;;;;5070915;28;20260;-54
2022/03/14 04:24:41;;;;;;;;;;;22.60;27.20;;;;;;5064826;28;19923;-54
2022/03/14 04:27:06;;;;;;;;;;;22.50;27.20;;;;;;5068983;28;19927;-52
2022/03/14 04:29:32;;;;;;;;;;;22.40;27.40;;;;;;5070548;28;19922;-53
2022/03/14 04:31:57;;;;;;;;;;;22.30;27.50;;;;;;5069990;28;20368;-54
2022/03/14 04:34:23;;;;;;;;;;;22.20;27.50;;;;;;5069638;28;19924;-54
2022/03/14 04:36:51;;;;;;;;;;;22.10;27.60;;;;;;5069563;28;20428;-53
2022/03/14 04:39:17;;;;;;;;;;;22.10;27.60;;;;;;5069694;28;19964;-53
2022/03/14 04:41:43;;;;;;;;;;;22.10;27.70;;;;;;5070732;28;19952;-53
2022/03/14 04:44:08;;;;;;;;;;;22.10;27.70;;;;;;5070195;28;20012;-53
2022/03/14 04:46:34;;;;;;;;;;;22.10;28.20;;;;;;5069699;28;19924;-53
2022/03/14 04:48:59;;;;;;;;;;;22.20;27.70;;;;;;5061420;28;19908;-53
2022/03/14 04:51:25;;;;;;;;;;;22.20;27.60;;;;;;5071660;28;20334;-53
2022/03/14 04:53:50;;;;;;;;;;;22.30;27.50;;;;;;5071508;28;19920;-53
2022/03/14 04:56:16;;;;;;;;;;;22.40;27.50;;;;;;5072972;28;19912;-53
2022/03/14 04:58:41;;;;;;;;;;;22.50;27.40;;;;;;5072477;28;19920;-53
2022/03/14 05:01:07;;;;;;;;;;;22.50;27.80;;;;;;5073307;28;19909;-54
2022/03/14 05:03:33;;;;;;;;;;;22.60;27.30;;;;;;5073498;28;19913;-52
2022/03/14 05:05:59;;;;;;;;;;;22.60;27.30;;;;;;5071952;28;19925;-54
2022/03/14 05:08:24;;;;;;;;;;;22.60;27.30;;;;;;5073149;28;19919;-53
2022/03/14 05:10:50;;;;;;;;;;;22.50;27.30;;;;;;5072631;28;20264;-52
2022/03/14 05:13:15;;;;;;;;;;;22.50;27.40;;;;;;5072479;28;20291;-53
2022/03/14 05:15:41;;;;;;;;;;;22.40;27.40;;;;;;5073012;28;20298;-53
2022/03/14 05:18:06;;;;;;;;;;;22.40;27.40;;;;;;5072654;28;19912;-53
2022/03/14 05:20:33;;;;;;;;;;;22.30;27.50;;;;;;5071288;28;19931;-52
2022/03/14 05:22:59;;;;;;;;;;;22.30;27.50;;;;;;5072685;28;20003;-53
2022/03/14 05:25:24;;;;;;;;;;;22.20;27.50;;;;;;5065994;28;20020;-53
2022/03/14 05:27:52;;;;;;;;;;;22.30;27.60;;;;;;5062101;28;19951;-54
2022/03/14 05:30:18;;;;;;;;;;;22.20;27.60;;;;;;5072692;28;19915;-54
2022/03/14 05:32:43;;;;;;;;;;;22.20;27.60;;;;;;5071138;28;20382;-53
2022/03/14 05:35:11;;;;;;;;;;;22.10;27.60;;;;;;5069639;28;20325;-53
2022/03/14 05:37:37;;;;;;;;;;;22.10;27.70;;;;;;5068392;28;20260;-54
2022/03/14 05:40:04;;;;;;;;;;;22.10;27.80;;;;;;5069887;28;20444;-53
2022/03/14 05:42:29;;;;;;;;;;;22.10;27.80;;;;;;5067899;28;19909;-53
2022/03/14 05:44:55;;;;;;;;;;;22.10;27.80;;;;;;5068386;28;19920;-55
2022/03/14 05:47:20;;;;;;;;;;;22.10;27.80;;;;;;5069547;28;20189;-53
2022/03/14 05:49:46;;;;;;;;;;;22.10;27.70;;;;;;5067845;28;19948;-54
2022/03/14 05:52:11;;;;;;;;;;;22.10;27.70;;;;;;5069223;28;19916;-54
2022/03/14 05:54:37;;;;;;;;;;;22.10;27.70;;;;;;5068385;28;19915;-54
2022/03/14 05:57:02;;;;;;;;;;;22.10;27.70;;;;;;5068825;28;19959;-53
2022/03/14 05:59:28;;;;;;;;;;;22.10;27.70;;;;;;5067298;28;19916;-54
2022/03/14 06:01:53;;;;;;;;;;;22.10;27.70;;;;;;5068831;28;19908;-53
2022/03/14 06:04:19;;;;;;;;;;;22.10;27.70;;;;;;5068331;28;19919;-53
2022/03/14 06:06:44;;;;;;;;;;;22.10;27.60;;;;;;5066659;28;19966;-53
2022/03/14 06:09:10;;;;;;;;;;;22.20;27.70;;;;;;5069062;28;19919;-54
2022/03/14 06:11:38;;;;;;;;;;;22.20;27.60;;;;;;5067534;28;20379;-53
2022/03/14 06:14:03;;;;;;;;;;;22.20;27.60;;;;;;5068707;28;19944;-53
2022/03/14 06:16:29;;;;;;;;;;;22.20;27.50;;;;;;5067644;28;19955;-53
2022/03/14 06:18:54;;;;;;;;;;;22.20;27.50;;;;;;5068191;28;20011;-53
2022/03/14 06:21:20;;;;;;;;;;;22.20;27.50;;;;;;5067539;28;19913;-53
2022/03/14 06:23:45;;;;;;;;;;;22.20;27.60;;;;;;5067029;28;20004;-53
2022/03/14 06:26:11;;;;;;;;;;;22.20;27.50;;;;;;5063310;28;19917;-54
2022/03/14 06:28:36;;;;;;;;;;;22.20;27.50;;;;;;5067751;28;20273;-53
2022/03/14 06:31:02;;;;;;;;;;;22.10;27.50;;;;;;5066378;28;19912;-53
2022/03/14 06:33:27;;;;;;;;;;;22.20;27.60;;;;;;5067915;28;19916;-53
2022/03/14 06:35:52;;;;;;;;;;;22.20;27.60;;;;;;5067416;28;20375;-53
2022/03/14 06:38:18;;;;;;;;;;;22.20;27.50;;;;;;5069346;28;19912;-53
2022/03/14 06:40:43;;;;;;;;;;;22.20;27.60;;;;;;5067013;28;20367;-53
2022/03/14 06:43:11;;;;;;;;;;;22.20;27.60;;;;;;5068647;28;20269;-52
2022/03/14 06:45:38;;;;;;;;;;;22.10;27.50;;;;;;5067119;28;19921;-53
2022/03/14 06:48:04;;;;;;;;;;;22.10;27.50;;;;;;5068038;28;19928;-53
2022/03/14 06:50:31;;;;;;;;;;;22.10;27.60;;;;;;5067613;28;19966;-53
2022/03/14 06:52:57;;;;;;;;;;;22.10;27.60;;;;;;5067269;28;19916;-53
2022/03/14 06:55:23;;;;;;;;;;;22.10;27.60;;;;;;5068749;28;19920;-53
2022/03/14 06:57:48;;;;;;;;;;;22.00;27.60;;;;;;5065311;28;20724;-53
2022/03/14 07:00:14;;;;;;;;;;;22.00;27.70;;;;;;5067137;28;19920;-53
2022/03/14 07:02:40;;;;;;;;;;;22.00;27.70;;;;;;5068011;28;19943;-53
2022/03/14 07:05:06;;;;;;;;;;;21.90;27.70;;;;;;5065423;28;19912;-53
2022/03/14 07:07:31;;;;;;;;;;;21.90;27.70;;;;;;5068613;28;19927;-53
2022/03/14 07:09:57;;;;;;;;;;;21.80;27.70;;;;;;5067105;28;19915;-53
2022/03/14 07:12:22;;;;;;;;;;;21.80;27.70;;;;;;5062857;28;19921;-54
2022/03/14 07:14:48;;;;;;;;;;;21.80;27.70;;;;;;5067495;28;20287;-53
2022/03/14 07:17:13;;;;;;;;;;;21.80;27.80;;;;;;5066458;28;19942;-53
2022/03/14 07:19:45;;;;;;;;;;;21.80;27.80;;;;;;5070610;28;19920;-53
2022/03/14 07:22:17;;;;;;;;;;;21.80;27.70;;;;;;5069724;28;19923;-53
2022/03/14 07:24:44;;;;;;;;;;;21.80;27.70;;;;;;5068903;28;20364;-53
2022/03/14 07:27:09;;;;;;;;;;;21.80;27.70;;;;;;5065508;28;20015;-53
2022/03/14 07:29:35;;;;;;;;;;;21.80;27.60;;;;;;5071018;28;20006;-53
2022/03/14 07:32:00;;;;;;;;;;;21.90;27.60;;;;;;5069269;28;19924;-53
2022/03/14 07:34:28;;;;;;;;;;;22.00;27.60;;;;;;5067274;28;19921;-53
2022/03/14 07:36:53;;;;;;;;;;;22.00;27.40;;;;;;5071898;28;19959;-53
2022/03/14 07:39:19;;;;;;;;;;;22.00;26.90;;;;;;5065047;28;19956;-53
2022/03/14 07:41:45;;;;;;;;;;;22.00;26.70;;;;;;5059536;28;19970;-53
2022/03/14 07:44:10;;;;;;;;;;;22.00;26.20;;;;;;5072999;28;19924;-54
2022/03/14 07:46:36;;;;;;;;;;;22.10;26.00;;;;;;5072951;28;20353;-54
2022/03/14 07:49:01;;;;;;;;;;;22.10;25.60;;;;;;5074876;28;19913;-54
2022/03/14 07:51:28;;;;;;;;;;;22.30;25.40;;;;;;5074645;28;19908;-53
2022/03/14 07:53:53;;;;;;;;;;;22.30;24.90;;;;;;5075031;28;19912;-53
2022/03/14 07:56:19;;;;;;;;;;;22.40;24.50;;;;;;5072286;28;19914;-53
2022/03/14 07:58:44;;;;;;;;;;;22.50;24.50;;;;;;5074040;28;19916;-54
2022/03/14 08:01:10;;;;;;;;;;;22.60;24.50;;;;;;5074449;28;19974;-53
2022/03/14 08:03:36;;;;;;;;;;;22.70;24.40;;;;;;5072571;28;19921;-53
2022/03/14 08:06:02;;;;;;;;;;;22.80;24.30;;;;;;5067782;28;19971;-53
2022/03/14 08:08:28;;;;;;;;;;;22.80;24.40;;;;;;5070900;28;19981;-54
2022/03/14 08:10:54;;;;;;;;;;;22.90;24.60;;;;;;5070802;28;20364;-53
2022/03/14 08:13:20;;;;;;;;;;;23.00;24.70;;;;;;5071219;28;19916;-54
2022/03/14 08:15:46;;;;;;;;;;;23.00;24.80;;;;;;5067624;28;20007;-53
2022/03/14 08:18:13;;;;;;;;;;;23.00;24.90;;;;;;5071267;28;19912;-53
2022/03/14 08:20:38;;;;;;;;;;;23.00;25.00;;;;;;5067551;28;20937;-54
2022/03/14 08:23:04;;;;;;;;;;;23.00;25.00;;;;;;5060032;28;19912;-53
2022/03/14 08:25:30;;;;;;;;;;;22.90;25.00;;;;;;5065789;28;19920;-53
2022/03/14 08:27:55;;;;;;;;;;;22.90;25.20;;;;;;5066019;28;19978;-54
2022/03/14 08:30:24;;;;;;;;;;;22.90;25.40;;;;;;5070599;28;20403;-54
2022/03/14 08:32:53;;;;;;;;;;;23.00;25.50;;;;;;5061049;28;20303;-55
2022/03/14 08:35:20;;;;;;;;;;;23.10;25.50;;;;;;5063716;28;20007;-54
2022/03/14 08:37:46;;;;;;;;;;;23.30;25.70;;;;;;5071435;28;19927;-54
2022/03/14 08:40:13;;;;;;;;;;;23.40;25.70;;;;;;5071461;28;19913;-54
2022/03/14 08:42:39;;;;;;;;;;;23.50;25.70;;;;;;5067899;28;19919;-54
2022/03/14 08:45:04;;;;;;;;;;;23.60;25.80;;;;;;5067155;28;20007;-54
2022/03/14 08:47:30;;;;;;;;;;;23.70;25.90;;;;;;5067600;28;19920;-54
2022/03/14 08:49:56;;;;;;;;;;;23.70;26.00;;;;;;5063221;28;19920;-54
2022/03/14 08:52:21;;;;;;;;;;;23.70;26.00;;;;;;5069357;28;19923;-54
2022/03/14 08:54:47;;;;;;;;;;;23.80;26.10;;;;;;5061427;28;20376;-54
2022/03/14 08:57:12;;;;;;;;;;;23.80;26.10;;;;;;5071554;28;19913;-54
2022/03/14 08:59:38;;;;;;;;;;;23.80;26.20;;;;;;5068586;28;20347;-54
2022/03/14 09:02:03;;;;;;;;;;;23.90;26.20;;;;;;5072287;28;19983;-54
2022/03/14 09:04:29;;;;;;;;;;;24.00;26.20;;;;;;5067693;28;19927;-54
2022/03/14 09:06:55;;;;;;;;;;;24.00;26.20;;;;;;5072841;28;19920;-54
2022/03/14 09:09:20;;;;;;;;;;;24.00;26.20;;;;;;5070833;28;19913;-54
2022/03/14 09:11:46;;;;;;;;;;;24.10;26.30;;;;;;5070401;28;19943;-54
2022/03/14 09:14:11;;;;;;;;;;;24.10;26.30;;;;;;5072176;28;19908;-54
2022/03/14 09:16:37;;;;;;;;;;;24.00;26.30;;;;;;5072944;28;20063;-53
2022/03/14 09:19:02;;;;;;;;;;;24.00;26.40;;;;;;5072919;28;19909;-54
2022/03/14 09:21:32;;;;;;;;;;;24.00;26.50;;;;;;5065561;28;19916;-54
2022/03/14 09:23:58;;;;;;;;;;;24.00;26.50;;;;;;5070351;28;20391;-54
2022/03/14 09:26:23;;;;;;;;;;;23.80;26.40;;;;;;5070909;28;20019;-53
2022/03/14 09:28:50;;;;;;;;;;;23.80;26.70;;;;;;5057194;28;19922;-54
2022/03/14 09:31:15;;;;;;;;;;;23.70;26.80;;;;;;5063910;28;19979;-54
2022/03/14 09:33:41;;;;;;;;;;;23.70;26.80;;;;;;5071833;28;19931;-54
2022/03/14 09:36:06;;;;;;;;;;;23.80;26.80;;;;;;5071808;28;19924;-53
2022/03/14 09:38:31;;;;;;;;;;;23.90;26.70;;;;;;5071624;28;19960;-53
2022/03/14 09:41:01;;;;;;;;;;;24.00;27.20;;;;;;5071945;28;19909;-53
2022/03/14 09:43:26;;;;;;;;;;;24.00;26.60;;;;;;5065816;28;19921;-54
2022/03/14 09:45:52;;;;;;;;;;;24.10;26.70;;;;;;5063917;28;20344;-54
2022/03/14 09:48:17;;;;;;;;;;;24.10;26.60;;;;;;5072153;28;19909;-54
2022/03/14 09:50:46;;;;;;;;;;;24.20;26.60;;;;;;5064449;28;19920;-54
2022/03/14 09:53:15;;;;;;;;;;;24.20;26.60;;;;;;5060981;28;19974;-54
2022/03/14 09:55:42;;;;;;;;;;;24.20;26.60;;;;;;5070569;28;19916;-55
2022/03/14 09:58:09;;;;;;;;;;;24.20;26.60;;;;;;5070978;28;19912;-54
2022/03/14 10:00:34;;;;;;;;;;;24.20;26.60;;;;;;5069728;28;19912;-54
2022/03/14 10:03:00;;;;;;;;;;;24.20;26.80;;;;;;5071684;28;19958;-53
2022/03/14 10:05:25;;;;;;;;;;;24.20;26.70;;;;;;5062645;28;19965;-53
2022/03/14 10:07:51;;;;;;;;;;;24.30;26.70;;;;;;5071561;28;19917;-54
2022/03/14 10:10:16;;;;;;;;;;;24.30;26.70;;;;;;5071845;28;20427;-54
2022/03/14 10:12:43;;;;;;;;;;;24.30;26.90;;;;;;5065308;28;19920;-54
2022/03/14 10:15:09;;;;;;;;;;;24.30;27.00;;;;;;5066177;28;19916;-54
2022/03/14 10:17:35;;;;;;;;;;;24.30;27.10;;;;;;5066209;28;19917;-54
2022/03/14 10:20:00;;;;;;;;;;;24.30;27.20;;;;;;5068388;28;19908;-54
2022/03/14 10:22:36;;;;;;;;;;;24.20;27.10;;;;;;5058141;28;19926;-53
2022/03/14 10:25:20;;;;;;;;;;;24.20;27.30;;;;;;5057957;28;19913;-53
2022/03/14 10:27:46;;;;;;;;;;;24.20;27.30;;;;;;5070921;28;19920;-54
2022/03/14 10:30:22;;;;;;;;;;;24.20;27.50;;;;;;5061090;28;20309;-54
2022/03/14 10:32:48;;;;;;;;;;;24.20;27.50;;;;;;5067825;28;20363;-53
2022/03/14 10:35:16;;;;;;;;;;;24.20;27.60;;;;;;5069961;28;19915;-52
2022/03/14 10:37:42;;;;;;;;;;;24.30;27.70;;;;;;5066153;28;19916;-54
2022/03/14 10:40:08;;;;;;;;;;;24.30;27.70;;;;;;5065714;28;20006;-53
2022/03/14 10:42:37;;;;;;;;;;;24.20;27.70;;;;;;5055463;28;19992;-54
2022/03/14 10:45:03;;;;;;;;;;;24.20;27.80;;;;;;5063974;28;20532;-54
2022/03/14 10:47:28;;;;;;;;;;;24.10;27.90;;;;;;5056711;28;19919;-53
2022/03/14 10:49:54;;;;;;;;;;;24.10;28.00;;;;;;5059427;28;19908;-53
2022/03/14 10:52:20;;;;;;;;;;;24.10;28.10;;;;;;5071151;28;19917;-53
2022/03/14 10:54:46;;;;;;;;;;;24.10;28.60;;;;;;5059719;28;19980;-55
2022/03/14 10:57:31;;;;;;;;;;;24.20;28.10;;;;;;5066174;28;19978;-54
2022/03/14 10:59:57;;;;;;;;;;;24.20;28.10;;;;;;5068987;28;19916;-53
2022/03/14 11:02:23;;;;;;;;;;;24.20;28.10;;;;;;5069258;28;19916;-54
2022/03/14 11:04:50;;;;;;;;;;;24.30;28.20;;;;;;5067821;28;20007;-54
2022/03/14 11:07:16;;;;;;;;;;;24.30;28.20;;;;;;5069494;28;19916;-53
2022/03/14 11:09:44;;;;;;;;;;;24.30;28.10;;;;;;5069489;28;20073;-54
2022/03/14 11:12:11;;;;;;;;;;;24.30;28.10;;;;;;5074119;28;19927;-53
2022/03/14 11:14:36;;;;;;;;;;;24.40;28.20;;;;;;5075056;28;19921;-53
2022/03/14 11:17:15;;;;;;;;;;;24.40;28.20;;;;;;5061562;28;20268;-53
2022/03/14 11:19:41;;;;;;;;;;;24.40;28.20;;;;;;5072682;28;20611;-52
2022/03/14 11:22:08;;;;;;;;;;;24.40;28.60;;;;;;5071577;28;19966;-53
2022/03/14 11:24:33;;;;;;;;;;;24.50;28.30;;;;;;5075096;28;19916;-54
2022/03/14 11:26:58;;;;;;;;;;;24.50;28.30;;;;;;5072238;28;19920;-54
2022/03/14 11:29:24;;;;;;;;;;;24.50;28.30;;;;;;5064074;28;20054;-53
2022/03/14 11:31:49;;;;;;;;;;;24.40;28.30;;;;;;5074222;28;19920;-53
2022/03/14 11:34:16;;;;;;;;;;;24.40;28.40;;;;;;5071802;28;20294;-54
2022/03/14 11:36:41;;;;;;;;;;;24.40;28.50;;;;;;5068765;28;20045;-52
2022/03/14 11:39:07;;;;;;;;;;;24.40;28.50;;;;;;5070872;28;19992;-54
2022/03/14 11:41:33;;;;;;;;;;;24.40;28.50;;;;;;5074142;28;19913;-55
2022/03/14 11:43:59;;;;;;;;;;;24.50;28.60;;;;;;5073959;28;20372;-54
2022/03/14 11:46:25;;;;;;;;;;;24.50;28.60;;;;;;5072115;28;20007;-54
2022/03/14 11:48:50;;;;;;;;;;;24.50;28.50;;;;;;5071723;28;19973;-53
2022/03/14 11:51:16;;;;;;;;;;;24.50;28.50;;;;;;5068041;28;19920;-54
2022/03/14 11:53:47;;;;;;;;;;;24.50;28.50;;;;;;5066255;28;19977;-53
2022/03/14 11:56:13;;;;;;;;;;;24.50;28.60;;;;;;5069703;28;19945;-53
2022/03/14 11:58:39;;;;;;;;;;;24.50;28.60;;;;;;5063174;28;19944;-53
2022/03/14 12:01:17;;;;;;;;;;;24.40;28.60;;;;;;5070560;28;19913;-52
2022/03/14 12:03:55;;;;;;;;;;;24.40;28.70;;;;;;5067683;28;19916;-53
2022/03/14 12:06:40;;;;;;;;;;;24.40;29.00;;;;;;5065379;28;19925;-53
2022/03/14 12:09:05;;;;;;;;;;;24.30;29.00;;;;;;5070599;28;19919;-54
2022/03/14 12:11:34;;;;;;;;;;;24.40;29.20;;;;;;5065164;28;20369;-54
2022/03/14 12:13:59;;;;;;;;;;;24.40;29.20;;;;;;5072826;28;19924;-53
2022/03/14 12:16:34;;;;;;;;;;;24.40;29.20;;;;;;5073249;28;19919;-53
2022/03/14 12:18:59;;;;;;;;;;;24.40;29.20;;;;;;5072551;28;20008;-53
2022/03/14 12:21:44;;;;;;;;;;;24.40;29.30;;;;;;5068022;28;19995;-53
2022/03/14 12:24:17;;;;;;;;;;;24.40;29.20;;;;;;5062681;28;20466;-53
2022/03/14 12:26:43;;;;;;;;;;;24.50;29.30;;;;;;5063439;28;19924;-53
2022/03/14 12:29:27;;;;;;;;;;;24.50;29.20;;;;;;5072414;28;19920;-53
2022/03/14 12:32:11;;;;;;;;;;;24.50;29.30;;;;;;5071688;28;19923;-53
2022/03/14 12:34:37;;;;;;;;;;;24.50;29.20;;;;;;5073322;28;19988;-54
2022/03/14 12:37:05;;;;;;;;;;;24.50;29.30;;;;;;5068072;28;20339;-53
2022/03/14 12:39:34;;;;;;;;;;;24.50;29.40;;;;;;5065312;28;19952;-53
2022/03/14 12:42:18;;;;;;;;;;;24.50;29.40;;;;;;5068537;28;19995;-53
2022/03/14 12:44:44;;;;;;;;;;;24.50;29.30;;;;;;5070061;28;19916;-52
2022/03/14 12:47:10;;;;;;;;;;;24.60;29.40;;;;;;5071733;28;19912;-53
2022/03/14 12:49:38;;;;;;;;;;;24.50;29.30;;;;;;5071615;28;20007;-53
2022/03/14 12:52:11;;;;;;;;;;;24.60;29.40;;;;;;5065039;28;19945;-52
2022/03/14 12:54:36;;;;;;;;;;;24.60;29.30;;;;;;5072724;28;19920;-53
2022/03/14 12:57:02;;;;;;;;;;;24.60;29.40;;;;;;5072755;28;20331;-55
2022/03/14 12:59:27;;;;;;;;;;;24.60;29.40;;;;;;5073352;28;19958;-54
2022/03/14 13:01:53;;;;;;;;;;;24.70;29.50;;;;;;5066697;28;20261;-53
2022/03/14 13:04:18;;;;;;;;;;;24.60;29.40;;;;;;5054659;28;20308;-53
2022/03/14 13:06:48;;;;;;;;;;;24.60;29.40;;;;;;5063622;28;19916;-53
2022/03/14 13:09:14;;;;;;;;;;;24.70;29.50;;;;;;5071309;28;20273;-54
2022/03/14 13:11:40;;;;;;;;;;;24.70;29.50;;;;;;5069639;28;19918;-54
2022/03/14 13:14:12;;;;;;;;;;;24.70;29.50;;;;;;5070361;28;20358;-54
2022/03/14 13:16:40;;;;;;;;;;;24.70;29.50;;;;;;5073161;28;19981;-55
2022/03/14 13:19:15;;;;;;;;;;;24.70;29.40;;;;;;5061687;28;19917;-52
2022/03/14 13:21:41;;;;;;;;;;;24.70;29.40;;;;;;5069254;28;19936;-54
2022/03/14 13:24:06;;;;;;;;;;;24.80;29.50;;;;;;5071058;28;19916;-54
2022/03/14 13:26:32;;;;;;;;;;;24.80;29.50;;;;;;5067342;28;20007;-53
2022/03/14 13:28:58;;;;;;;;;;;24.80;29.50;;;;;;5072414;28;19950;-54
2022/03/14 13:31:37;;;;;;;;;;;24.80;29.50;;;;;;5068561;28;19960;-54
2022/03/14 13:34:04;;;;;;;;;;;24.80;29.60;;;;;;5072754;28;19916;-54
2022/03/14 13:36:34;;;;;;;;;;;24.70;29.50;;;;;;5068260;28;19909;-54
2022/03/14 13:39:01;;;;;;;;;;;24.70;29.60;;;;;;5059109;28;19913;-54
2022/03/14 13:41:26;;;;;;;;;;;24.70;29.60;;;;;;5067659;28;20012;-53
2022/03/14 13:43:56;;;;;;;;;;;24.70;29.70;;;;;;5068907;28;19948;-54
2022/03/14 13:46:27;;;;;;;;;;;24.70;29.70;;;;;;5071240;28;19923;-53
2022/03/14 13:48:57;;;;;;;;;;;24.70;29.90;;;;;;5070970;28;19923;-54
2022/03/14 13:51:34;;;;;;;;;;;24.70;29.90;;;;;;5072024;28;19958;-53
2022/03/14 13:54:03;;;;;;;;;;;24.70;30.00;;;;;;5068565;28;20403;-54
2022/03/14 13:56:55;;;;;;;;;;;24.70;30.00;;;;;;5068571;28;19917;-53
2022/03/14 13:59:32;;;;;;;;;;;24.70;30.00;;;;;;5069132;28;20280;-54
2022/03/14 14:01:59;;;;;;;;;;;24.70;30.00;;;;;;5070630;28;20284;-53
2022/03/14 14:04:28;;;;;;;;;;;24.80;30.10;;;;;;5071677;28;19919;-53
2022/03/14 14:06:55;;;;;;;;;;;24.70;30.10;;;;;;5070440;28;19963;-54
2022/03/14 14:09:21;;;;;;;;;;;24.70;30.10;;;;;;5068923;28;20007;-54
2022/03/14 14:11:55;;;;;;;;;;;24.80;30.20;;;;;;5071174;28;19924;-54
2022/03/14 14:14:24;;;;;;;;;;;24.80;30.30;;;;;;5071817;28;20350;-53